createdAt,value
2019-01-18T00:01:38.699Z,97627.45
2019-01-18T00:04:08.006Z,97630.25
2019-01-18T00:06:37.290Z,97637.42
2019-01-18T00:09:08.524Z,97628.91
2019-01-18T00:11:37.825Z,97642.86
2019-01-18T00:14:07.136Z,97643.64
2019-01-18T00:16:36.917Z,97641.05
2019-01-18T00:19:08.013Z,97648.59
2019-01-18T00:21:37.334Z,97646.51
2019-01-18T00:24:06.738Z,97652.29
2019-01-18T00:26:36.071Z,97662.63
2019-01-18T00:29:05.336Z,97663.48
2019-01-18T00:31:34.606Z,97661.63
2019-01-18T00:34:03.973Z,97664.67
2019-01-18T00:36:33.257Z,97666.58
2019-01-18T00:39:02.511Z,97669.05
2019-01-18T00:41:31.790Z,97668.42
2019-01-18T00:44:01.090Z,97667.67
2019-01-18T00:46:30.342Z,97670.95
2019-01-18T00:48:59.712Z,97674.14
2019-01-18T00:51:28.957Z,97664.48
2019-01-18T00:53:58.240Z,97676.84
2019-01-18T00:56:27.520Z,97679.73
2019-01-18T00:58:56.821Z,97682.60
2019-01-18T01:01:26.082Z,97686.84
2019-01-18T01:03:55.345Z,97692.34
2019-01-18T01:06:24.619Z,97691.59
2019-01-18T01:08:54.899Z,97699.99
2019-01-18T01:11:24.377Z,97701.20
2019-01-18T01:13:53.714Z,97700.86
2019-01-18T01:16:23.002Z,97704.52
2019-01-18T01:18:52.270Z,97705.53
2019-01-18T01:21:21.662Z,97700.14
2019-01-18T01:23:50.929Z,97696.45
2019-01-18T01:26:20.200Z,97705.37
2019-01-18T01:28:49.470Z,97707.92
2019-01-18T01:31:18.730Z,97704.73
2019-01-18T01:33:48.023Z,97711.62
2019-01-18T01:36:17.297Z,97713.89
2019-01-18T01:38:46.558Z,97713.91
2019-01-18T01:41:15.835Z,97716.50
2019-01-18T01:43:45.094Z,97722.38
2019-01-18T01:46:14.367Z,97726.45
2019-01-18T01:48:43.619Z,97722.17
2019-01-18T01:51:12.891Z,97730.66
2019-01-18T01:53:43.258Z,97729.55
2019-01-18T01:56:12.542Z,97728.64
2019-01-18T01:58:41.795Z,97738.11
2019-01-18T02:01:11.053Z,97737.31
2019-01-18T02:03:40.318Z,97743.48
2019-01-18T02:06:09.579Z,97740.45
2019-01-18T02:08:38.881Z,97730.09
2019-01-18T02:11:08.138Z,97741.80
2019-01-18T02:13:39.221Z,97749.58
2019-01-18T02:16:08.495Z,97742.02
2019-01-18T02:18:37.752Z,97749.53
2019-01-18T02:21:07.042Z,97749.16
2019-01-18T02:23:36.337Z,97750.38
2019-01-18T02:26:05.956Z,97756.14
2019-01-18T02:28:35.217Z,97754.05
2019-01-18T02:31:04.485Z,97754.59
2019-01-18T02:33:33.761Z,97758.53
2019-01-18T02:36:03.045Z,97769.72
2019-01-18T02:38:32.298Z,97768.41
2019-01-18T02:41:01.557Z,97758.33
2019-01-18T02:43:30.837Z,97768.59
2019-01-18T02:46:00.103Z,97754.08
2019-01-18T02:48:30.575Z,97762.91
2019-01-18T02:50:59.835Z,97770.47
2019-01-18T02:53:29.109Z,97775.02
2019-01-18T02:55:58.371Z,97775.31
2019-01-18T02:58:28.649Z,97770.30
2019-01-18T03:00:57.925Z,97781.15
2019-01-18T03:03:27.180Z,97777.28
2019-01-18T03:05:56.490Z,97780.05
2019-01-18T03:08:26.844Z,97787.03
2019-01-18T03:10:56.138Z,97789.64
2019-01-18T03:13:25.413Z,97790.66
2019-01-18T03:15:54.720Z,97794.15
2019-01-18T03:18:23.991Z,97797.09
2019-01-18T03:20:53.267Z,97803.93
2019-01-18T03:23:22.516Z,97809.37
2019-01-18T03:25:51.786Z,97817.63
2019-01-18T03:28:21.125Z,97814.69
2019-01-18T03:30:50.379Z,97822.30
2019-01-18T03:33:19.644Z,97827.67
2019-01-18T03:35:48.889Z,97835.32
2019-01-18T03:38:18.166Z,97830.11
2019-01-18T03:40:47.413Z,97845.24
2019-01-18T03:43:16.686Z,97850.00
2019-01-18T03:45:45.951Z,97843.35
2019-01-18T03:48:15.265Z,97856.04
2019-01-18T03:50:44.519Z,97863.27
2019-01-18T03:53:13.770Z,97863.12
2019-01-18T03:55:43.051Z,97869.23
2019-01-18T03:58:12.315Z,97874.58
2019-01-18T04:00:41.601Z,97876.47
2019-01-18T04:03:10.859Z,97880.24
2019-01-18T04:05:40.155Z,97879.26
2019-01-18T04:08:09.421Z,97883.88
2019-01-18T04:10:38.691Z,97881.70
2019-01-18T04:13:07.967Z,97884.78
2019-01-18T04:15:37.239Z,97892.44
2019-01-18T04:18:06.738Z,97890.41
2019-01-18T04:20:36.377Z,97903.53
2019-01-18T04:23:05.732Z,97910.00
2019-01-18T04:25:35.225Z,97916.51
2019-01-18T04:28:04.702Z,97923.52
2019-01-18T04:30:33.956Z,97927.92
2019-01-18T04:33:03.268Z,97933.19
2019-01-18T04:35:32.525Z,97925.56
2019-01-18T04:38:01.795Z,97931.01
2019-01-18T04:40:31.127Z,97932.67
2019-01-18T04:43:00.337Z,97942.85
2019-01-18T04:45:29.677Z,97941.83
2019-01-18T04:47:58.953Z,97946.62
2019-01-18T04:50:29.226Z,97943.87
2019-01-18T04:52:58.525Z,97950.41
2019-01-18T04:55:27.774Z,97953.93
2019-01-18T04:57:57.046Z,97956.36
2019-01-18T05:00:28.312Z,97967.02
2019-01-18T05:02:57.606Z,97970.32
2019-01-18T05:05:27.175Z,97964.05
2019-01-18T05:07:56.440Z,97963.53
2019-01-18T05:10:27.518Z,97971.34
2019-01-18T05:12:56.837Z,97973.01
2019-01-18T05:15:31.401Z,97971.79
2019-01-18T05:18:00.659Z,97982.16
2019-01-18T05:20:30.014Z,97980.78
2019-01-18T05:22:59.282Z,97985.33
2019-01-18T05:25:28.556Z,97988.27
2019-01-18T05:27:57.842Z,97994.99
2019-01-18T05:30:28.830Z,98005.52
2019-01-18T05:32:58.185Z,98009.72
2019-01-18T05:35:27.566Z,98014.06
2019-01-18T05:37:57.046Z,98019.13
2019-01-18T05:40:26.334Z,98021.05
2019-01-18T05:42:55.587Z,98032.00
2019-01-18T05:45:24.878Z,98032.31
2019-01-18T05:47:54.200Z,98034.86
2019-01-18T05:50:25.722Z,98033.26
2019-01-18T05:52:56.467Z,98027.42
2019-01-18T05:55:25.727Z,98040.95
2019-01-18T05:57:56.958Z,98049.53
2019-01-18T06:00:46.939Z,98050.36
2019-01-18T06:03:16.259Z,98057.55
2019-01-18T06:05:47.875Z,98064.58
2019-01-18T06:08:17.325Z,98081.02
2019-01-18T06:10:49.163Z,98086.14
2019-01-18T06:13:19.941Z,98083.45
2019-01-18T06:15:50.329Z,98088.31
2019-01-18T06:18:21.556Z,98093.92
2019-01-18T06:20:51.255Z,98093.69
2019-01-18T06:23:20.763Z,98101.10
2019-01-18T06:25:50.501Z,98107.47
2019-01-18T06:28:20.154Z,98109.05
2019-01-18T06:30:49.690Z,98111.45
2019-01-18T06:33:19.177Z,98119.33
2019-01-18T06:35:48.847Z,98121.78
2019-01-18T06:38:18.395Z,98128.77
2019-01-18T06:40:49.257Z,98130.67
2019-01-18T06:43:18.848Z,98130.41
2019-01-18T06:45:48.266Z,98142.46
2019-01-18T06:48:21.460Z,98140.27
2019-01-18T06:50:51.099Z,98144.94
2019-01-18T06:53:20.817Z,98148.97
2019-01-18T06:55:50.971Z,98149.70
2019-01-18T06:58:20.576Z,98155.52
2019-01-18T07:00:50.125Z,98163.38
2019-01-18T07:03:19.571Z,98163.75
2019-01-18T07:05:50.318Z,98165.47
2019-01-18T07:08:19.584Z,98161.10
2019-01-18T07:10:48.841Z,98172.74
2019-01-18T07:13:18.153Z,98180.17
2019-01-18T07:15:47.436Z,98182.75
2019-01-18T07:18:16.704Z,98189.09
2019-01-18T07:20:45.946Z,98190.28
2019-01-18T07:23:15.233Z,98192.90
2019-01-18T07:25:44.512Z,98209.58
2019-01-18T07:28:13.766Z,98214.36
2019-01-18T07:30:43.874Z,98207.58
2019-01-18T07:33:15.139Z,98217.50
2019-01-18T07:35:44.431Z,98219.93
2019-01-18T07:38:13.675Z,98230.13
2019-01-18T07:40:42.955Z,98237.37
2019-01-18T07:43:12.218Z,98240.32
2019-01-18T07:45:41.495Z,98255.06
2019-01-18T07:48:10.789Z,98251.92
2019-01-18T07:50:40.048Z,98258.77
2019-01-18T07:53:09.443Z,98251.86
2019-01-18T07:55:38.697Z,98266.98
2019-01-18T07:58:08.007Z,98264.03
2019-01-18T08:00:37.293Z,98271.88
2019-01-18T08:03:06.558Z,98280.47
2019-01-18T08:05:35.822Z,98273.16
2019-01-18T08:08:05.707Z,98287.20
2019-01-18T08:10:34.984Z,98290.33
2019-01-18T08:13:05.050Z,98300.30
2019-01-18T08:15:34.354Z,98303.89
2019-01-18T08:18:03.611Z,98306.02
2019-01-18T08:20:32.862Z,98310.25
2019-01-18T08:23:02.998Z,98320.45
2019-01-18T08:25:32.259Z,98327.53
2019-01-18T08:28:02.224Z,98325.58
2019-01-18T08:30:32.326Z,98331.95
2019-01-18T08:33:01.611Z,98342.52
2019-01-18T08:35:31.772Z,98332.77
2019-01-18T08:38:01.266Z,98332.81
2019-01-18T08:40:32.969Z,98340.35
2019-01-18T08:43:02.320Z,98340.32
2019-01-18T08:45:43.456Z,98347.27
2019-01-18T08:48:12.726Z,98345.56
2019-01-18T08:50:42.738Z,98347.66
2019-01-18T08:53:12.024Z,98352.77
2019-01-18T08:55:41.274Z,98352.59
2019-01-18T08:58:10.557Z,98359.58
2019-01-18T09:00:39.815Z,98365.30
2019-01-18T09:03:09.202Z,98367.39
2019-01-18T09:05:38.504Z,98368.20
2019-01-18T09:08:07.763Z,98377.72
2019-01-18T09:10:41.169Z,98375.19
2019-01-18T09:13:13.843Z,98370.45
2019-01-18T09:15:46.236Z,98376.55
2019-01-18T09:18:15.607Z,98381.20
2019-01-18T09:20:44.942Z,98384.70
2019-01-18T09:23:14.201Z,98381.78
2019-01-18T09:25:43.494Z,98380.95
2019-01-18T09:28:12.743Z,98390.95
2019-01-18T09:30:41.995Z,98393.31
2019-01-18T09:33:11.310Z,98395.84
2019-01-18T09:35:41.579Z,98400.70
2019-01-18T09:38:17.851Z,98399.69
2019-01-18T09:40:46.988Z,98395.92
2019-01-18T09:43:17.719Z,98399.20
2019-01-18T09:45:46.995Z,98402.41
2019-01-18T09:48:16.245Z,98404.69
2019-01-18T09:50:45.519Z,98409.02
2019-01-18T09:53:14.909Z,98408.03
2019-01-18T09:55:44.193Z,98410.14
2019-01-18T09:58:13.453Z,98416.25
2019-01-18T10:00:42.811Z,98417.34
2019-01-18T10:03:12.085Z,98417.95
2019-01-18T10:05:41.345Z,98414.28
2019-01-18T10:08:12.115Z,98412.52
2019-01-18T10:10:41.781Z,98411.82
2019-01-18T10:13:11.042Z,98413.22
2019-01-18T10:15:45.411Z,98417.88
2019-01-18T10:18:15.215Z,98418.03
2019-01-18T10:20:44.517Z,98403.66
2019-01-18T10:23:13.790Z,98405.03
2019-01-18T10:25:43.087Z,98404.77
2019-01-18T10:28:13.782Z,98403.84
2019-01-18T10:30:44.354Z,98393.70
2019-01-18T10:33:13.730Z,98389.27
2019-01-18T10:35:43.018Z,98390.33
2019-01-18T10:38:12.385Z,98391.94
2019-01-18T10:40:41.639Z,98389.66
2019-01-18T10:43:10.915Z,98393.41
2019-01-18T10:45:40.275Z,98394.85
2019-01-18T10:48:09.555Z,98395.29
2019-01-18T10:50:38.807Z,98399.14
2019-01-18T10:53:08.104Z,98405.33
2019-01-18T10:55:37.347Z,98410.89
2019-01-18T10:58:06.600Z,98401.61
2019-01-18T11:00:37.371Z,98405.42
2019-01-18T11:03:07.169Z,98402.60
2019-01-18T11:05:36.454Z,98405.16
2019-01-18T11:08:05.727Z,98401.76
2019-01-18T11:10:35.149Z,98405.90
2019-01-18T11:13:04.509Z,98415.83
2019-01-18T11:15:35.939Z,98418.27
2019-01-18T11:18:05.929Z,98406.16
2019-01-18T11:20:45.568Z,98414.09
2019-01-18T11:23:14.850Z,98407.13
2019-01-18T11:25:44.204Z,98411.14
2019-01-18T11:28:13.581Z,98405.98
2019-01-18T11:30:42.837Z,98403.05
2019-01-18T11:33:12.117Z,98406.52
2019-01-18T11:35:41.484Z,98406.00
2019-01-18T11:38:10.861Z,98410.21
2019-01-18T11:40:40.162Z,98414.91
2019-01-18T11:43:09.450Z,98418.81
2019-01-18T11:45:38.722Z,98413.00
2019-01-18T11:48:08.992Z,98416.13
2019-01-18T11:50:38.309Z,98414.93
2019-01-18T11:53:07.556Z,98415.86
2019-01-18T11:55:36.853Z,98411.70
2019-01-18T11:58:06.683Z,98418.08
2019-01-18T12:00:37.923Z,98419.72
2019-01-18T12:03:07.208Z,98418.61
2019-01-18T12:05:36.642Z,98417.98
2019-01-18T12:08:06.179Z,98414.00
2019-01-18T12:10:35.489Z,98421.45
2019-01-18T12:13:05.168Z,98412.84
2019-01-18T12:15:34.461Z,98418.41
2019-01-18T12:18:03.807Z,98420.11
2019-01-18T12:20:37.252Z,98415.46
2019-01-18T12:23:07.521Z,98409.95
2019-01-18T12:25:36.900Z,98407.19
2019-01-18T12:28:06.840Z,98399.81
2019-01-18T12:30:37.370Z,98405.20
2019-01-18T12:33:06.721Z,98403.89
2019-01-18T12:35:36.002Z,98399.81
2019-01-18T12:38:05.704Z,98392.14
2019-01-18T12:40:35.063Z,98396.25
2019-01-18T12:43:04.410Z,98393.22
2019-01-18T12:45:35.084Z,98399.13
2019-01-18T12:48:05.534Z,98392.96
2019-01-18T12:50:39.928Z,98396.30
2019-01-18T12:53:09.959Z,98387.61
2019-01-18T12:55:39.333Z,98387.20
2019-01-18T12:58:08.781Z,98388.92
2019-01-18T13:00:38.138Z,98394.65
2019-01-18T13:03:08.435Z,98394.58
2019-01-18T13:05:56.387Z,98397.17
2019-01-18T13:08:25.650Z,98396.27
2019-01-18T13:10:54.936Z,98404.80
2019-01-18T13:13:24.207Z,98407.75
2019-01-18T13:16:26.280Z,98398.88
2019-01-18T13:18:58.517Z,98402.10
2019-01-18T13:21:27.821Z,98403.62
2019-01-18T13:23:57.089Z,98401.39
2019-01-18T13:26:26.372Z,98396.88
2019-01-18T13:28:55.650Z,98392.36
2019-01-18T13:31:25.102Z,98392.87
2019-01-18T13:33:54.418Z,98397.80
2019-01-18T13:36:23.726Z,98392.86
2019-01-18T13:38:53.018Z,98394.80
2019-01-18T13:41:22.490Z,98398.55
2019-01-18T13:43:51.746Z,98396.84
2019-01-18T13:46:21.152Z,98397.12
2019-01-18T13:48:51.521Z,98397.73
2019-01-18T13:51:21.017Z,98400.27
2019-01-18T13:53:50.325Z,98404.73
2019-01-18T13:56:19.591Z,98397.62
2019-01-18T13:58:48.877Z,98399.34
2019-01-18T14:01:19.252Z,98401.66
2019-01-18T14:03:48.522Z,98404.16
2019-01-18T14:06:17.794Z,98408.17
2019-01-18T14:08:47.077Z,98405.16
2019-01-18T14:11:17.820Z,98402.97
2019-01-18T14:13:47.147Z,98410.70
2019-01-18T14:16:16.764Z,98407.16
2019-01-18T14:18:46.103Z,98415.54
2019-01-18T14:21:15.437Z,98413.83
2019-01-18T14:23:44.708Z,98418.62
2019-01-18T14:26:13.978Z,98411.26
2019-01-18T14:28:43.247Z,98410.08
2019-01-18T14:31:12.551Z,98417.47
2019-01-18T14:33:41.838Z,98425.56
2019-01-18T14:36:14.666Z,98426.27
2019-01-18T14:39:04.258Z,98430.09
2019-01-18T14:41:33.580Z,98434.69
2019-01-18T14:44:02.871Z,98434.55
2019-01-18T14:46:32.162Z,98435.08
2019-01-18T14:49:01.416Z,98432.21
2019-01-18T14:51:30.781Z,98438.11
2019-01-18T14:54:00.080Z,98439.22
2019-01-18T14:56:29.381Z,98442.72
2019-01-18T14:58:58.684Z,98442.62
2019-01-18T15:01:27.926Z,98448.63
2019-01-18T15:03:57.195Z,98437.33
2019-01-18T15:06:27.930Z,98444.39
2019-01-18T15:08:57.186Z,98447.27
2019-01-18T15:11:26.469Z,98442.19
2019-01-18T15:13:55.742Z,98441.81
2019-01-18T15:16:25.094Z,98439.98
2019-01-18T15:18:54.376Z,98444.08
2019-01-18T15:21:23.632Z,98451.48
2019-01-18T15:23:52.944Z,98448.78
2019-01-18T15:26:22.202Z,98453.66
2019-01-18T15:28:51.475Z,98448.62
2019-01-18T15:31:20.755Z,98451.47
2019-01-18T15:33:50.011Z,98445.94
2019-01-18T15:36:19.282Z,98448.83
2019-01-18T15:38:48.569Z,98454.95
2019-01-18T15:41:17.842Z,98452.52
2019-01-18T15:43:48.597Z,98457.16
2019-01-18T15:46:17.874Z,98458.06
2019-01-18T15:48:47.295Z,98457.61
2019-01-18T15:51:16.577Z,98458.03
2019-01-18T15:53:47.664Z,98453.59
2019-01-18T15:56:17.075Z,98456.34
2019-01-18T15:58:46.339Z,98460.02
2019-01-18T16:01:15.674Z,98466.45
2019-01-18T16:03:45.010Z,98465.81
2019-01-18T16:06:14.316Z,98471.33
2019-01-18T16:08:45.370Z,98468.39
2019-01-18T16:11:14.624Z,98471.13
2019-01-18T16:13:46.704Z,98470.63
2019-01-18T16:16:59.724Z,98473.86
2019-01-18T16:19:29.128Z,98478.41
2019-01-18T16:21:58.502Z,98478.48
2019-01-18T16:24:27.853Z,98473.39
2019-01-18T16:26:58.729Z,98476.09
2019-01-18T16:29:28.105Z,98477.77
2019-01-18T16:31:58.758Z,98474.27
2019-01-18T16:34:28.071Z,98473.73
2019-01-18T16:36:57.320Z,98472.41
2019-01-18T16:39:28.118Z,98482.33
2019-01-18T16:41:57.434Z,98482.28
2019-01-18T16:44:26.792Z,98483.41
2019-01-18T16:46:56.140Z,98479.13
2019-01-18T16:49:25.397Z,98483.48
2019-01-18T16:51:54.685Z,98477.31
2019-01-18T16:54:23.990Z,98483.75
2019-01-18T16:56:56.367Z,98480.53
2019-01-18T16:59:26.219Z,98477.85
2019-01-18T17:01:55.535Z,98478.97
2019-01-18T17:04:24.828Z,98478.97
2019-01-18T17:06:54.926Z,98480.58
2019-01-18T17:09:24.621Z,98477.63
2019-01-18T17:11:53.887Z,98483.27
2019-01-18T17:14:24.995Z,98483.81
2019-01-18T17:16:55.397Z,98485.69
2019-01-18T17:19:24.667Z,98492.89
2019-01-18T17:21:54.172Z,98484.87
2019-01-18T17:24:23.491Z,98478.21
2019-01-18T17:26:52.771Z,98477.40
2019-01-18T17:29:22.143Z,98482.77
2019-01-18T17:31:51.415Z,98477.89
2019-01-18T17:34:20.692Z,98480.80
2019-01-18T17:37:17.104Z,98479.78
2019-01-18T17:39:57.524Z,98483.27
2019-01-18T17:42:43.544Z,98480.31
2019-01-18T17:45:49.876Z,98482.23
2019-01-18T17:49:01.260Z,98484.69
2019-01-18T17:51:59.019Z,98478.48
2019-01-18T17:54:44.267Z,98488.95
2019-01-18T17:58:09.640Z,98485.19
2019-01-18T18:01:04.032Z,98488.17
2019-01-18T18:04:16.268Z,98491.09
2019-01-18T18:06:51.822Z,98494.35
2019-01-18T18:09:47.637Z,98491.91
2019-01-18T18:12:53.440Z,98496.73
2019-01-18T18:16:04.096Z,98501.33
2019-01-18T18:18:52.993Z,98495.16
2019-01-18T18:22:13.059Z,98497.58
2019-01-18T18:25:12.399Z,98503.21
2019-01-18T18:28:21.971Z,98501.06
2019-01-18T18:31:17.084Z,98504.81
2019-01-18T18:34:30.558Z,98502.16
2019-01-18T18:37:13.213Z,98503.77
2019-01-18T18:40:19.530Z,98505.11
2019-01-18T18:43:22.113Z,98502.67
2019-01-18T18:46:29.478Z,98504.55
2019-01-18T18:49:29.809Z,98501.61
2019-01-18T18:53:04.278Z,98502.16
2019-01-18T18:56:04.811Z,98504.84
2019-01-18T18:59:20.913Z,98507.24
2019-01-18T19:02:35.044Z,98499.45
2019-01-18T19:05:30.695Z,98497.33
2019-01-18T19:08:46.761Z,98498.94
2019-01-18T19:11:52.029Z,98496.23
2019-01-18T19:15:08.730Z,98492.48
2019-01-18T19:18:07.872Z,98493.31
2019-01-18T19:21:23.060Z,98490.59
2019-01-18T19:24:45.094Z,98487.94
2019-01-18T19:27:56.510Z,98484.42
2019-01-18T19:31:22.154Z,98487.92
2019-01-18T19:34:17.325Z,98481.75
2019-01-18T19:37:28.754Z,98485.50
2019-01-18T19:40:38.571Z,98480.95
2019-01-18T19:43:57.638Z,98481.77
2019-01-18T19:46:52.729Z,98480.14
2019-01-18T19:49:51.064Z,98482.55
2019-01-18T19:53:07.492Z,98480.67
2019-01-18T19:56:05.202Z,98487.11
2019-01-18T19:59:14.649Z,98479.60
2019-01-18T20:02:20.741Z,98476.37
2019-01-18T20:05:30.312Z,98481.72
2019-01-18T20:08:42.979Z,98482.80
2019-01-18T20:11:40.241Z,98484.70
2019-01-18T20:14:50.226Z,98474.77
2019-01-18T20:17:34.344Z,98475.33
2019-01-18T20:20:53.189Z,98468.31
2019-01-18T20:24:19.096Z,98467.81
2019-01-18T20:27:14.117Z,98465.64
2019-01-18T20:30:20.677Z,98465.91
2019-01-18T20:33:20.363Z,98458.91
2019-01-18T20:36:30.580Z,98458.67
2019-01-18T20:39:28.800Z,98456.78
2019-01-18T20:42:28.290Z,98459.20
2019-01-18T20:45:17.148Z,98461.56
2019-01-18T20:48:15.494Z,98462.36
2019-01-18T20:51:06.419Z,98463.45
2019-01-18T20:54:16.582Z,98467.47
2019-01-18T20:57:12.933Z,98472.58
2019-01-18T20:59:59.386Z,98466.68
2019-01-18T21:02:57.400Z,98468.84
2019-01-18T21:05:57.833Z,98476.33
2019-01-18T21:09:14.179Z,98472.33
2019-01-18T21:12:02.576Z,98471.72
2019-01-18T21:15:14.503Z,98466.93
2019-01-18T21:18:21.879Z,98467.66
2019-01-18T21:21:38.155Z,98463.64
2019-01-18T21:24:40.092Z,98469.27
2019-01-18T21:27:39.956Z,98470.66
2019-01-18T21:31:01.495Z,98468.72
2019-01-18T21:34:23.590Z,98467.27
2019-01-18T21:37:22.639Z,98470.88
2019-01-18T21:40:31.760Z,98464.41
2019-01-18T21:43:21.834Z,98462.81
2019-01-18T21:46:53.700Z,98456.67
2019-01-18T21:49:39.195Z,98456.59
2019-01-18T21:52:46.576Z,98452.05
2019-01-18T21:55:25.112Z,98457.44
2019-01-18T21:58:35.372Z,98457.42
2019-01-18T22:01:49.596Z,98453.95
2019-01-18T22:05:09.031Z,98452.61
2019-01-18T22:08:04.455Z,98450.45
2019-01-18T22:11:05.623Z,98455.77
2019-01-18T22:14:22.358Z,98453.39
2019-01-18T22:17:31.863Z,98456.34
2019-01-18T22:20:38.480Z,98451.30
2019-01-18T22:23:29.404Z,98453.37
2019-01-18T22:26:30.858Z,98446.15
2019-01-18T22:29:50.440Z,98454.75
2019-01-18T22:32:57.855Z,98450.41
2019-01-18T22:36:12.503Z,98454.16
2019-01-18T22:39:00.669Z,98447.79
2019-01-18T22:42:14.783Z,98447.79
2019-01-18T22:44:57.171Z,98446.97
2019-01-18T22:48:08.311Z,98445.63
2019-01-18T22:51:23.372Z,98447.73
2019-01-18T22:54:22.906Z,98447.19
2019-01-18T22:57:39.419Z,98450.97
2019-01-18T23:01:06.251Z,98441.75
2019-01-18T23:04:27.706Z,98448.70
2019-01-18T23:07:34.285Z,98445.81
2019-01-18T23:10:46.559Z,98439.05
2019-01-18T23:13:51.745Z,98441.73
2019-01-18T23:16:59.597Z,98445.75
2019-01-18T23:20:25.473Z,98445.39
2019-01-18T23:23:57.040Z,98444.11
2019-01-18T23:27:07.931Z,98445.86
2019-01-18T23:29:47.932Z,98437.28
2019-01-18T23:32:37.109Z,98435.75
2019-01-18T23:35:28.302Z,98439.98
2019-01-18T23:38:31.004Z,98438.94
2019-01-18T23:41:27.798Z,98434.69
2019-01-18T23:44:31.941Z,98435.16
2019-01-18T23:47:26.237Z,98435.75
2019-01-18T23:50:12.481Z,98430.16
2019-01-18T23:53:09.474Z,98426.58
2019-01-18T23:56:22.604Z,98419.88
2019-01-18T23:59:08.394Z,98416.58
